<?xml version="1.0" encoding="UTF-8" standalone="no" ?>
<gpx xmlns="http://www.topografix.com/GPX/1/1" xmlns:xsi="http://www.w3.org/2001/XMLSchema-instance" xsi:schemaLocation="http://www.topografix.com/GPX/1/1 http://www.topografix.com/GPX/1/1/gpx.xsd" version="1.1" creator="VisuGPX - https://www.visugpx.com">
  <metadata>
    <name>montgiscard - St O par marcaissonne</name>
    <desc><![CDATA[montgiscard - St O par marcaissonne]]></desc>
  </metadata>
  <trk>
    <name><![CDATA[20180203134826-TMrGU]]></name>
    <trkseg>
      <trkpt lat="43.46444" lon="1.56975">
        <ele>155</ele>
        <time>2014-03-20T13:46:26.161Z</time>
      </trkpt>
      <trkpt lat="43.4645" lon="1.56976">
        <ele>155</ele>
        <time>2014-03-20T13:46:24.152Z</time>
      </trkpt>
      <trkpt lat="43.46481" lon="1.56999">
        <ele>154</ele>
        <time>2014-03-20T13:46:15.108Z</time>
      </trkpt>
      <trkpt lat="43.46532" lon="1.57048">
        <ele>154</ele>
        <time>2014-03-20T13:46:02.157Z</time>
      </trkpt>
      <trkpt lat="43.46612" lon="1.57101">
        <ele>155</ele>
        <time>2014-03-20T13:45:46.11Z</time>
      </trkpt>
      <trkpt lat="43.46654" lon="1.57111">
        <ele>154</ele>
        <time>2014-03-20T13:45:37.104Z</time>
      </trkpt>
      <trkpt lat="43.46759" lon="1.57162">
        <ele>154</ele>
        <time>2014-03-20T13:45:07.154Z</time>
      </trkpt>
      <trkpt lat="43.46853" lon="1.5722">
        <ele>153</ele>
        <time>2014-03-20T13:44:37.098Z</time>
      </trkpt>
      <trkpt lat="43.46895" lon="1.57242">
        <ele>154</ele>
        <time>2014-03-20T13:44:26.157Z</time>
      </trkpt>
      <trkpt lat="43.46945" lon="1.57255">
        <ele>154</ele>
        <time>2014-03-20T13:44:15.122Z</time>
      </trkpt>
      <trkpt lat="43.47004" lon="1.57276">
        <ele>154</ele>
        <time>2014-03-20T13:44:02.159Z</time>
      </trkpt>
      <trkpt lat="43.47078" lon="1.57295">
        <ele>154</ele>
        <time>2014-03-20T13:43:47.135Z</time>
      </trkpt>
      <trkpt lat="43.47288" lon="1.57406">
        <ele>154</ele>
      </trkpt>
      <trkpt lat="43.47292" lon="1.57411">
        <ele>154</ele>
      </trkpt>
      <trkpt lat="43.47319" lon="1.57418">
        <ele>154</ele>
        <time>2014-03-20T13:42:53.116Z</time>
      </trkpt>
      <trkpt lat="43.47403" lon="1.57464">
        <ele>154</ele>
        <time>2014-03-20T13:42:35.353Z</time>
      </trkpt>
      <trkpt lat="43.47483" lon="1.57537">
        <ele>155</ele>
        <time>2014-03-20T13:42:15.217Z</time>
      </trkpt>
      <trkpt lat="43.47536" lon="1.57579">
        <ele>155</ele>
        <time>2014-03-20T13:42:01.145Z</time>
      </trkpt>
      <trkpt lat="43.47579" lon="1.57622">
        <ele>156</ele>
        <time>2014-03-20T13:41:50.143Z</time>
      </trkpt>
      <trkpt lat="43.47604" lon="1.57644">
        <ele>157</ele>
        <time>2014-03-20T13:41:44.15Z</time>
      </trkpt>
      <trkpt lat="43.47629" lon="1.5766">
        <ele>157</ele>
        <time>2014-03-20T13:41:38.108Z</time>
      </trkpt>
      <trkpt lat="43.47657" lon="1.57691">
        <ele>158</ele>
        <time>2014-03-20T13:41:30.219Z</time>
      </trkpt>
      <trkpt lat="43.47703" lon="1.57735">
        <ele>161</ele>
        <time>2014-03-20T13:41:17.147Z</time>
      </trkpt>
      <trkpt lat="43.47737" lon="1.57761">
        <ele>162</ele>
        <time>2014-03-20T13:41:08.104Z</time>
      </trkpt>
      <trkpt lat="43.47748" lon="1.57766">
        <ele>162</ele>
        <time>2014-03-20T13:41:05.117Z</time>
      </trkpt>
      <trkpt lat="43.47755" lon="1.5776">
        <ele>162</ele>
        <time>2014-03-20T13:41:03.105Z</time>
      </trkpt>
      <trkpt lat="43.47817" lon="1.57682">
        <ele>163</ele>
        <time>2014-03-20T13:40:42.099Z</time>
      </trkpt>
      <trkpt lat="43.47832" lon="1.57657">
        <ele>162</ele>
        <time>2014-03-20T13:40:36.103Z</time>
      </trkpt>
      <trkpt lat="43.47875" lon="1.57602">
        <ele>163</ele>
        <time>2014-03-20T13:40:23.42Z</time>
      </trkpt>
      <trkpt lat="43.47883" lon="1.57597">
        <ele>164</ele>
        <time>2014-03-20T13:40:20.254Z</time>
      </trkpt>
      <trkpt lat="43.47891" lon="1.576">
        <ele>164</ele>
        <time>2014-03-20T13:40:16.143Z</time>
      </trkpt>
      <trkpt lat="43.47906" lon="1.57616">
        <ele>164</ele>
        <time>2014-03-20T13:40:10.097Z</time>
      </trkpt>
      <trkpt lat="43.47968" lon="1.57703">
        <ele>169</ele>
        <time>2014-03-20T13:39:51.225Z</time>
      </trkpt>
      <trkpt lat="43.47983" lon="1.57714">
        <ele>170</ele>
        <time>2014-03-20T13:39:47.094Z</time>
      </trkpt>
      <trkpt lat="43.48003" lon="1.57718">
        <ele>174</ele>
        <time>2014-03-20T13:39:43.127Z</time>
      </trkpt>
      <trkpt lat="43.48014" lon="1.57715">
        <ele>175</ele>
        <time>2014-03-20T13:39:41.125Z</time>
      </trkpt>
      <trkpt lat="43.48042" lon="1.57693">
        <ele>176</ele>
        <time>2014-03-20T13:39:35.435Z</time>
      </trkpt>
      <trkpt lat="43.48058" lon="1.57685">
        <ele>177</ele>
        <time>2014-03-20T13:39:32.097Z</time>
      </trkpt>
      <trkpt lat="43.48068" lon="1.57688">
        <ele>178</ele>
        <time>2014-03-20T13:39:30.105Z</time>
      </trkpt>
      <trkpt lat="43.48101" lon="1.5772">
        <ele>185</ele>
        <time>2014-03-20T13:39:23.143Z</time>
      </trkpt>
      <trkpt lat="43.48133" lon="1.57737">
        <ele>188</ele>
        <time>2014-03-20T13:39:17.123Z</time>
      </trkpt>
      <trkpt lat="43.4817" lon="1.57745">
        <ele>195</ele>
        <time>2014-03-20T13:39:11.14Z</time>
      </trkpt>
      <trkpt lat="43.48191" lon="1.57745">
        <ele>198</ele>
        <time>2014-03-20T13:39:07.106Z</time>
      </trkpt>
      <trkpt lat="43.48199" lon="1.57737">
        <ele>199</ele>
        <time>2014-03-20T13:39:05.14Z</time>
      </trkpt>
      <trkpt lat="43.48213" lon="1.57714">
        <ele>201</ele>
        <time>2014-03-20T13:39:00.139Z</time>
      </trkpt>
      <trkpt lat="43.48234" lon="1.5769">
        <ele>203</ele>
        <time>2014-03-20T13:38:52.158Z</time>
      </trkpt>
      <trkpt lat="43.48244" lon="1.57668">
        <ele>206</ele>
        <time>2014-03-20T13:38:46.15Z</time>
      </trkpt>
      <trkpt lat="43.48258" lon="1.57656">
        <ele>208</ele>
        <time>2014-03-20T13:38:42.168Z</time>
      </trkpt>
      <trkpt lat="43.48268" lon="1.57661">
        <ele>208</ele>
      </trkpt>
      <trkpt lat="43.48276" lon="1.57675">
        <ele>211</ele>
        <time>2014-03-20T13:38:36.161Z</time>
      </trkpt>
      <trkpt lat="43.48315" lon="1.57708">
        <ele>214</ele>
        <time>2014-03-20T13:38:28.159Z</time>
      </trkpt>
      <trkpt lat="43.48333" lon="1.5772">
        <ele>215</ele>
        <time>2014-03-20T13:38:25.12Z</time>
      </trkpt>
      <trkpt lat="43.48363" lon="1.57733">
        <ele>220</ele>
        <time>2014-03-20T13:38:18.145Z</time>
      </trkpt>
      <trkpt lat="43.48372" lon="1.57741">
        <ele>220</ele>
        <time>2014-03-20T13:38:15.108Z</time>
      </trkpt>
      <trkpt lat="43.48383" lon="1.57747">
        <ele>220</ele>
        <time>2014-03-20T13:38:12.114Z</time>
      </trkpt>
      <trkpt lat="43.48417" lon="1.57755">
        <ele>221</ele>
        <time>2014-03-20T13:38:03.268Z</time>
      </trkpt>
      <trkpt lat="43.48483" lon="1.57812">
        <ele>216</ele>
        <time>2014-03-20T13:37:25.137Z</time>
      </trkpt>
      <trkpt lat="43.48488" lon="1.57824">
        <ele>215</ele>
        <time>2014-03-20T13:37:20.109Z</time>
      </trkpt>
      <trkpt lat="43.48482" lon="1.57879">
        <ele>212</ele>
        <time>2014-03-20T13:36:57.155Z</time>
      </trkpt>
      <trkpt lat="43.48462" lon="1.57963">
        <ele>208</ele>
        <time>2014-03-20T13:36:22.148Z</time>
      </trkpt>
      <trkpt lat="43.48455" lon="1.57975">
        <ele>207</ele>
        <time>2014-03-20T13:36:16.142Z</time>
      </trkpt>
      <trkpt lat="43.48447" lon="1.58">
        <ele>205</ele>
        <time>2014-03-20T13:36:07.138Z</time>
      </trkpt>
      <trkpt lat="43.48446" lon="1.58025">
        <ele>203</ele>
        <time>2014-03-20T13:35:56.144Z</time>
      </trkpt>
      <trkpt lat="43.48452" lon="1.58067">
        <ele>201</ele>
        <time>2014-03-20T13:35:38.144Z</time>
      </trkpt>
      <trkpt lat="43.48465" lon="1.58129">
        <ele>196</ele>
        <time>2014-03-20T13:35:12.139Z</time>
      </trkpt>
      <trkpt lat="43.48476" lon="1.58168">
        <ele>194</ele>
        <time>2014-03-20T13:34:56.105Z</time>
      </trkpt>
      <trkpt lat="43.48488" lon="1.58189">
        <ele>193</ele>
        <time>2014-03-20T13:34:47.122Z</time>
      </trkpt>
      <trkpt lat="43.48497" lon="1.58201">
        <ele>193</ele>
        <time>2014-03-20T13:34:42.093Z</time>
      </trkpt>
      <trkpt lat="43.48541" lon="1.58237">
        <ele>192</ele>
        <time>2014-03-20T13:34:25.167Z</time>
      </trkpt>
      <trkpt lat="43.48569" lon="1.58274">
        <ele>191</ele>
        <time>2014-03-20T13:34:11.09Z</time>
      </trkpt>
      <trkpt lat="43.48619" lon="1.58319">
        <ele>189</ele>
      </trkpt>
      <trkpt lat="43.48623" lon="1.58266">
        <ele>189</ele>
      </trkpt>
      <trkpt lat="43.48645" lon="1.58117">
        <ele>190</ele>
        <time>2014-03-20T13:33:09.158Z</time>
      </trkpt>
      <trkpt lat="43.48646" lon="1.58092">
        <ele>190</ele>
        <time>2014-03-20T13:33:03.161Z</time>
      </trkpt>
      <trkpt lat="43.48675" lon="1.57893">
        <ele>190</ele>
        <time>2014-03-20T13:32:19.147Z</time>
      </trkpt>
      <trkpt lat="43.48683" lon="1.57886">
        <ele>190</ele>
        <time>2014-03-20T13:32:15.108Z</time>
      </trkpt>
      <trkpt lat="43.48693" lon="1.5789">
        <ele>190</ele>
        <time>2014-03-20T13:32:11.138Z</time>
      </trkpt>
      <trkpt lat="43.48728" lon="1.57924">
        <ele>188</ele>
        <time>2014-03-20T13:31:56.208Z</time>
      </trkpt>
      <trkpt lat="43.48785" lon="1.57988">
        <ele>184</ele>
        <time>2014-03-20T13:31:30.645Z</time>
      </trkpt>
      <trkpt lat="43.48826" lon="1.5803">
        <ele>183</ele>
        <time>2014-03-20T13:31:12.232Z</time>
      </trkpt>
      <trkpt lat="43.48855" lon="1.58054">
        <ele>180</ele>
        <time>2014-03-20T13:31:01.129Z</time>
      </trkpt>
      <trkpt lat="43.48871" lon="1.58073">
        <ele>179</ele>
        <time>2014-03-20T13:30:54.151Z</time>
      </trkpt>
      <trkpt lat="43.48923" lon="1.58121">
        <ele>178</ele>
        <time>2014-03-20T13:30:39.934Z</time>
      </trkpt>
      <trkpt lat="43.49032" lon="1.5824">
        <ele>182</ele>
        <time>2014-03-20T13:30:18.143Z</time>
      </trkpt>
      <trkpt lat="43.49056" lon="1.58261">
        <ele>183</ele>
        <time>2014-03-20T13:30:13.141Z</time>
      </trkpt>
      <trkpt lat="43.4908" lon="1.58277">
        <ele>183</ele>
        <time>2014-03-20T13:30:08.093Z</time>
      </trkpt>
      <trkpt lat="43.49142" lon="1.58335">
        <ele>186</ele>
        <time>2014-03-20T13:29:50.135Z</time>
      </trkpt>
      <trkpt lat="43.49157" lon="1.58346">
        <ele>186</ele>
      </trkpt>
      <trkpt lat="43.49157" lon="1.58352">
        <ele>186</ele>
        <time>2014-03-20T13:29:45.22Z</time>
      </trkpt>
      <trkpt lat="43.49161" lon="1.58348">
        <ele>186</ele>
      </trkpt>
      <trkpt lat="43.49177" lon="1.58356">
        <ele>187</ele>
      </trkpt>
      <trkpt lat="43.49178" lon="1.58359">
        <ele>187</ele>
      </trkpt>
      <trkpt lat="43.49194" lon="1.58365">
        <ele>187</ele>
      </trkpt>
      <trkpt lat="43.492" lon="1.58363">
        <ele>187</ele>
      </trkpt>
      <trkpt lat="43.49219" lon="1.58368">
        <ele>187</ele>
      </trkpt>
      <trkpt lat="43.49242" lon="1.58366">
        <ele>187</ele>
      </trkpt>
      <trkpt lat="43.49254" lon="1.58358">
        <ele>187</ele>
        <time>2014-03-20T13:29:18.13Z</time>
      </trkpt>
      <trkpt lat="43.49267" lon="1.58344">
        <ele>187</ele>
        <time>2014-03-20T13:29:14.135Z</time>
      </trkpt>
      <trkpt lat="43.49277" lon="1.58341">
        <ele>187</ele>
        <time>2014-03-20T13:29:11.438Z</time>
      </trkpt>
      <trkpt lat="43.49284" lon="1.58342">
        <ele>187</ele>
        <time>2014-03-20T13:29:09.105Z</time>
      </trkpt>
      <trkpt lat="43.49333" lon="1.5838">
        <ele>187</ele>
        <time>2014-03-20T13:28:50.33Z</time>
      </trkpt>
      <trkpt lat="43.49359" lon="1.58405">
        <ele>188</ele>
        <time>2014-03-20T13:28:39.15Z</time>
      </trkpt>
      <trkpt lat="43.49395" lon="1.58449">
        <ele>186</ele>
        <time>2014-03-20T13:28:20.451Z</time>
      </trkpt>
      <trkpt lat="43.49412" lon="1.58464">
        <ele>186</ele>
        <time>2014-03-20T13:28:09.107Z</time>
      </trkpt>
      <trkpt lat="43.49447" lon="1.58505">
        <ele>183</ele>
        <time>2014-03-20T13:27:50.155Z</time>
      </trkpt>
      <trkpt lat="43.49473" lon="1.58528">
        <ele>182</ele>
        <time>2014-03-20T13:27:38.154Z</time>
      </trkpt>
      <trkpt lat="43.49486" lon="1.58544">
        <ele>182</ele>
        <time>2014-03-20T13:27:31.175Z</time>
      </trkpt>
      <trkpt lat="43.49541" lon="1.58586">
        <ele>181</ele>
        <time>2014-03-20T13:27:10.146Z</time>
      </trkpt>
      <trkpt lat="43.49554" lon="1.58592">
        <ele>181</ele>
        <time>2014-03-20T13:27:07.144Z</time>
      </trkpt>
      <trkpt lat="43.49621" lon="1.58596">
        <ele>186</ele>
        <time>2014-03-20T13:26:57.161Z</time>
      </trkpt>
      <trkpt lat="43.49668" lon="1.58591">
        <ele>190</ele>
        <time>2014-03-20T13:26:46.087Z</time>
      </trkpt>
      <trkpt lat="43.49691" lon="1.58592">
        <ele>190</ele>
        <time>2014-03-20T13:26:36.138Z</time>
      </trkpt>
      <trkpt lat="43.49751" lon="1.58605">
        <ele>190</ele>
        <time>2014-03-20T13:26:14.872Z</time>
      </trkpt>
      <trkpt lat="43.49769" lon="1.58602">
        <ele>189</ele>
        <time>2014-03-20T13:26:08.146Z</time>
      </trkpt>
      <trkpt lat="43.49791" lon="1.58596">
        <ele>189</ele>
      </trkpt>
      <trkpt lat="43.49809" lon="1.58595">
        <ele>188</ele>
      </trkpt>
      <trkpt lat="43.4982" lon="1.5859">
        <ele>188</ele>
      </trkpt>
      <trkpt lat="43.49833" lon="1.58592">
        <ele>187</ele>
      </trkpt>
      <trkpt lat="43.49844" lon="1.58593">
        <ele>185</ele>
      </trkpt>
      <trkpt lat="43.49862" lon="1.58609">
        <ele>184</ele>
      </trkpt>
      <trkpt lat="43.49871" lon="1.58619">
        <ele>183</ele>
      </trkpt>
      <trkpt lat="43.4988" lon="1.58631">
        <ele>183</ele>
      </trkpt>
      <trkpt lat="43.49887" lon="1.58635">
        <ele>183</ele>
      </trkpt>
      <trkpt lat="43.49897" lon="1.58639">
        <ele>182</ele>
        <time>2014-03-20T13:25:28.129Z</time>
      </trkpt>
      <trkpt lat="43.49909" lon="1.58643">
        <ele>182</ele>
      </trkpt>
      <trkpt lat="43.49907" lon="1.58666">
        <ele>182</ele>
      </trkpt>
      <trkpt lat="43.49904" lon="1.58702">
        <ele>181</ele>
      </trkpt>
      <trkpt lat="43.49892" lon="1.58783">
        <ele>180</ele>
      </trkpt>
      <trkpt lat="43.49889" lon="1.58816">
        <ele>180</ele>
      </trkpt>
      <trkpt lat="43.49886" lon="1.58864">
        <ele>181</ele>
      </trkpt>
      <trkpt lat="43.49893" lon="1.58894">
        <ele>181</ele>
      </trkpt>
      <trkpt lat="43.49896" lon="1.58932">
        <ele>183</ele>
      </trkpt>
      <trkpt lat="43.49897" lon="1.59015">
        <ele>184</ele>
      </trkpt>
      <trkpt lat="43.49899" lon="1.59037">
        <ele>183</ele>
      </trkpt>
      <trkpt lat="43.49898" lon="1.59047">
        <ele>183</ele>
        <time>2014-03-20T13:24:26.129Z</time>
      </trkpt>
      <trkpt lat="43.49892" lon="1.59069">
        <ele>183</ele>
        <time>2014-03-20T13:24:22.088Z</time>
      </trkpt>
      <trkpt lat="43.4989" lon="1.59128">
        <ele>183</ele>
        <time>2014-03-20T13:24:11.128Z</time>
      </trkpt>
      <trkpt lat="43.49894" lon="1.59271">
        <ele>185</ele>
        <time>2014-03-20T13:23:50.2Z</time>
      </trkpt>
      <trkpt lat="43.4989" lon="1.59325">
        <ele>185</ele>
        <time>2014-03-20T13:23:42.12Z</time>
      </trkpt>
      <trkpt lat="43.49885" lon="1.59366">
        <ele>185</ele>
        <time>2014-03-20T13:23:35.081Z</time>
      </trkpt>
      <trkpt lat="43.49883" lon="1.59405">
        <ele>185</ele>
        <time>2014-03-20T13:23:30.082Z</time>
      </trkpt>
      <trkpt lat="43.49873" lon="1.59489">
        <ele>184</ele>
        <time>2014-03-20T13:23:17.15Z</time>
      </trkpt>
      <trkpt lat="43.49849" lon="1.59646">
        <ele>186</ele>
        <time>2014-03-20T13:22:55.105Z</time>
      </trkpt>
      <trkpt lat="43.49837" lon="1.59756">
        <ele>185</ele>
        <time>2014-03-20T13:22:40.441Z</time>
      </trkpt>
      <trkpt lat="43.49819" lon="1.59882">
        <ele>188</ele>
        <time>2014-03-20T13:22:24.147Z</time>
      </trkpt>
      <trkpt lat="43.49802" lon="1.59977">
        <ele>191</ele>
        <time>2014-03-20T13:22:12.102Z</time>
      </trkpt>
      <trkpt lat="43.4979" lon="1.60056">
        <ele>191</ele>
        <time>2014-03-20T13:22:03.139Z</time>
      </trkpt>
      <trkpt lat="43.49787" lon="1.60094">
        <ele>191</ele>
        <time>2014-03-20T13:21:59.145Z</time>
      </trkpt>
      <trkpt lat="43.49778" lon="1.60121">
        <ele>190</ele>
        <time>2014-03-20T13:21:56.204Z</time>
      </trkpt>
      <trkpt lat="43.49773" lon="1.60129">
        <ele>190</ele>
        <time>2014-03-20T13:21:55.102Z</time>
      </trkpt>
      <trkpt lat="43.4975" lon="1.60148">
        <ele>190</ele>
        <time>2014-03-20T13:21:51.265Z</time>
      </trkpt>
      <trkpt lat="43.49721" lon="1.60179">
        <ele>193</ele>
        <time>2014-03-20T13:21:45.254Z</time>
      </trkpt>
      <trkpt lat="43.4972" lon="1.60183">
        <ele>193</ele>
        <time>2014-03-20T13:21:44.14Z</time>
      </trkpt>
      <trkpt lat="43.49723" lon="1.60193">
        <ele>193</ele>
        <time>2014-03-20T13:21:41.135Z</time>
      </trkpt>
      <trkpt lat="43.49741" lon="1.60221">
        <ele>192</ele>
        <time>2014-03-20T13:21:33.13Z</time>
      </trkpt>
      <trkpt lat="43.49832" lon="1.60351">
        <ele>192</ele>
        <time>2014-03-20T13:21:18.137Z</time>
      </trkpt>
      <trkpt lat="43.49849" lon="1.60368">
        <ele>195</ele>
        <time>2014-03-20T13:21:16.137Z</time>
      </trkpt>
      <trkpt lat="43.49876" lon="1.60387">
        <ele>197</ele>
        <time>2014-03-20T13:21:13.138Z</time>
      </trkpt>
      <trkpt lat="43.49925" lon="1.60408">
        <ele>200</ele>
        <time>2014-03-20T13:21:08.143Z</time>
      </trkpt>
      <trkpt lat="43.50006" lon="1.60416">
        <ele>204</ele>
        <time>2014-03-20T13:21:00.199Z</time>
      </trkpt>
      <trkpt lat="43.5003" lon="1.60416">
        <ele>208</ele>
        <time>2014-03-20T13:20:57.123Z</time>
      </trkpt>
      <trkpt lat="43.50072" lon="1.60427">
        <ele>210</ele>
        <time>2014-03-20T13:20:51.16Z</time>
      </trkpt>
      <trkpt lat="43.50091" lon="1.60437">
        <ele>213</ele>
        <time>2014-03-20T13:20:48.13Z</time>
      </trkpt>
      <trkpt lat="43.50111" lon="1.60452">
        <ele>214</ele>
        <time>2014-03-20T13:20:45.143Z</time>
      </trkpt>
      <trkpt lat="43.50127" lon="1.60471">
        <ele>215</ele>
        <time>2014-03-20T13:20:42.156Z</time>
      </trkpt>
      <trkpt lat="43.50153" lon="1.6052">
        <ele>216</ele>
        <time>2014-03-20T13:20:35.121Z</time>
      </trkpt>
      <trkpt lat="43.50157" lon="1.60558">
        <ele>216</ele>
        <time>2014-03-20T13:20:30.154Z</time>
      </trkpt>
      <trkpt lat="43.50151" lon="1.60611">
        <ele>217</ele>
        <time>2014-03-20T13:20:21.137Z</time>
      </trkpt>
      <trkpt lat="43.50153" lon="1.60629">
        <ele>218</ele>
        <time>2014-03-20T13:20:19.12Z</time>
      </trkpt>
      <trkpt lat="43.50157" lon="1.60639">
        <ele>218</ele>
        <time>2014-03-20T13:20:18.123Z</time>
      </trkpt>
      <trkpt lat="43.50228" lon="1.60695">
        <ele>220</ele>
        <time>2014-03-20T13:20:07.142Z</time>
      </trkpt>
      <trkpt lat="43.50252" lon="1.60722">
        <ele>221</ele>
        <time>2014-03-20T13:20:02.14Z</time>
      </trkpt>
      <trkpt lat="43.50271" lon="1.60751">
        <ele>223</ele>
        <time>2014-03-20T13:19:57.148Z</time>
      </trkpt>
      <trkpt lat="43.50303" lon="1.60819">
        <ele>224</ele>
        <time>2014-03-20T13:19:43.131Z</time>
      </trkpt>
      <trkpt lat="43.50312" lon="1.60832">
        <ele>224</ele>
        <time>2014-03-20T13:19:40.089Z</time>
      </trkpt>
      <trkpt lat="43.50319" lon="1.60839">
        <ele>225</ele>
        <time>2014-03-20T13:19:37.13Z</time>
      </trkpt>
      <trkpt lat="43.50368" lon="1.60854">
        <ele>226</ele>
        <time>2014-03-20T13:19:27.121Z</time>
      </trkpt>
      <trkpt lat="43.50389" lon="1.60866">
        <ele>226</ele>
        <time>2014-03-20T13:19:23.19Z</time>
      </trkpt>
      <trkpt lat="43.50399" lon="1.60874">
        <ele>227</ele>
        <time>2014-03-20T13:19:20.076Z</time>
      </trkpt>
      <trkpt lat="43.504" lon="1.60886">
        <ele>227</ele>
        <time>2014-03-20T13:19:17.075Z</time>
      </trkpt>
      <trkpt lat="43.50386" lon="1.60968">
        <ele>229</ele>
        <time>2014-03-20T13:19:07.116Z</time>
      </trkpt>
      <trkpt lat="43.50344" lon="1.61096">
        <ele>232</ele>
        <time>2014-03-20T13:18:54.075Z</time>
      </trkpt>
      <trkpt lat="43.50337" lon="1.61126">
        <ele>233</ele>
        <time>2014-03-20T13:18:51.195Z</time>
      </trkpt>
      <trkpt lat="43.50331" lon="1.6121">
        <ele>234</ele>
        <time>2014-03-20T13:18:41.117Z</time>
      </trkpt>
      <trkpt lat="43.5033" lon="1.61273">
        <ele>236</ele>
        <time>2014-03-20T13:18:31.126Z</time>
      </trkpt>
      <trkpt lat="43.50322" lon="1.61313">
        <ele>237</ele>
        <time>2014-03-20T13:18:25.086Z</time>
      </trkpt>
      <trkpt lat="43.50294" lon="1.61395">
        <ele>237</ele>
        <time>2014-03-20T13:18:13.143Z</time>
      </trkpt>
      <trkpt lat="43.50276" lon="1.61455">
        <ele>238</ele>
      </trkpt>
      <trkpt lat="43.50298" lon="1.6148">
        <ele>238</ele>
      </trkpt>
      <trkpt lat="43.50302" lon="1.61485">
        <ele>238</ele>
      </trkpt>
      <trkpt lat="43.50309" lon="1.61493">
        <ele>238</ele>
        <time>2014-03-20T13:17:28.204Z</time>
      </trkpt>
      <trkpt lat="43.50275" lon="1.61569">
        <ele>240</ele>
        <time>2014-03-20T13:17:08.247Z</time>
      </trkpt>
      <trkpt lat="43.50262" lon="1.61594">
        <ele>241</ele>
      </trkpt>
      <trkpt lat="43.50274" lon="1.61603">
        <ele>241</ele>
      </trkpt>
      <trkpt lat="43.50292" lon="1.61618">
        <ele>241</ele>
      </trkpt>
      <trkpt lat="43.50308" lon="1.61633">
        <ele>240</ele>
      </trkpt>
      <trkpt lat="43.50328" lon="1.61663">
        <ele>239</ele>
      </trkpt>
      <trkpt lat="43.50338" lon="1.61681">
        <ele>236</ele>
      </trkpt>
      <trkpt lat="43.50345" lon="1.61687">
        <ele>235</ele>
        <time>2014-03-20T13:15:27.129Z</time>
      </trkpt>
      <trkpt lat="43.50352" lon="1.617">
        <ele>234</ele>
      </trkpt>
      <trkpt lat="43.50368" lon="1.61712">
        <ele>233</ele>
      </trkpt>
      <trkpt lat="43.50376" lon="1.61715">
        <ele>232</ele>
      </trkpt>
      <trkpt lat="43.5039" lon="1.61714">
        <ele>232</ele>
      </trkpt>
      <trkpt lat="43.50421" lon="1.61711">
        <ele>225</ele>
      </trkpt>
      <trkpt lat="43.50439" lon="1.61707">
        <ele>224</ele>
      </trkpt>
      <trkpt lat="43.50458" lon="1.61707">
        <ele>224</ele>
        <time>2014-03-20T13:14:09.221Z</time>
      </trkpt>
      <trkpt lat="43.50488" lon="1.61701">
        <ele>223</ele>
      </trkpt>
      <trkpt lat="43.50499" lon="1.61699">
        <ele>222</ele>
      </trkpt>
      <trkpt lat="43.5051" lon="1.61699">
        <ele>218</ele>
      </trkpt>
      <trkpt lat="43.50524" lon="1.61702">
        <ele>217</ele>
      </trkpt>
      <trkpt lat="43.50532" lon="1.61707">
        <ele>217</ele>
        <time>2014-03-20T13:13:26.112Z</time>
      </trkpt>
      <trkpt lat="43.50547" lon="1.61717">
        <ele>217</ele>
        <time>2014-03-20T13:13:14.143Z</time>
      </trkpt>
      <trkpt lat="43.50583" lon="1.61735">
        <ele>213</ele>
      </trkpt>
      <trkpt lat="43.50624" lon="1.61765">
        <ele>212</ele>
        <time>2014-03-20T13:12:37.444Z</time>
      </trkpt>
      <trkpt lat="43.50629" lon="1.61767">
        <ele>212</ele>
        <time>2014-03-20T13:12:37.278Z</time>
      </trkpt>
      <trkpt lat="43.50634" lon="1.6177">
        <ele>211</ele>
      </trkpt>
      <trkpt lat="43.50646" lon="1.61774">
        <ele>211</ele>
      </trkpt>
      <trkpt lat="43.5065" lon="1.61759">
        <ele>211</ele>
      </trkpt>
      <trkpt lat="43.50661" lon="1.61764">
        <ele>210</ele>
        <time>2014-03-20T13:12:14.145Z</time>
      </trkpt>
      <trkpt lat="43.50671" lon="1.61776">
        <ele>211</ele>
      </trkpt>
      <trkpt lat="43.50694" lon="1.61796">
        <ele>212</ele>
      </trkpt>
      <trkpt lat="43.50713" lon="1.61815">
        <ele>212</ele>
        <time>2014-03-20T13:12:04.808Z</time>
      </trkpt>
      <trkpt lat="43.50747" lon="1.61846">
        <ele>216</ele>
        <time>2014-03-20T13:11:59.193Z</time>
      </trkpt>
      <trkpt lat="43.50764" lon="1.61856">
        <ele>218</ele>
        <time>2014-03-20T13:11:56.209Z</time>
      </trkpt>
      <trkpt lat="43.50783" lon="1.61862">
        <ele>219</ele>
        <time>2014-03-20T13:11:53.098Z</time>
      </trkpt>
      <trkpt lat="43.5081" lon="1.61858">
        <ele>220</ele>
      </trkpt>
      <trkpt lat="43.50826" lon="1.61869">
        <ele>220</ele>
      </trkpt>
      <trkpt lat="43.50839" lon="1.61849">
        <ele>219</ele>
      </trkpt>
      <trkpt lat="43.5087" lon="1.61806">
        <ele>218</ele>
        <time>2014-03-20T13:11:19.096Z</time>
      </trkpt>
      <trkpt lat="43.5091" lon="1.61766">
        <ele>218</ele>
      </trkpt>
      <trkpt lat="43.50942" lon="1.61729">
        <ele>215</ele>
        <time>2014-03-20T13:10:48.128Z</time>
      </trkpt>
      <trkpt lat="43.50976" lon="1.61692">
        <ele>214</ele>
      </trkpt>
      <trkpt lat="43.51003" lon="1.61663">
        <ele>213</ele>
        <time>2014-03-20T13:10:22.116Z</time>
      </trkpt>
      <trkpt lat="43.51018" lon="1.61646">
        <ele>211</ele>
      </trkpt>
      <trkpt lat="43.51085" lon="1.61574">
        <ele>210</ele>
        <time>2014-03-20T13:09:44.862Z</time>
      </trkpt>
      <trkpt lat="43.51104" lon="1.61553">
        <ele>208</ele>
      </trkpt>
      <trkpt lat="43.51112" lon="1.61542">
        <ele>208</ele>
      </trkpt>
      <trkpt lat="43.51121" lon="1.61527">
        <ele>208</ele>
      </trkpt>
      <trkpt lat="43.51239" lon="1.61344">
        <ele>203</ele>
      </trkpt>
      <trkpt lat="43.51253" lon="1.61322">
        <ele>202</ele>
        <time>2014-03-20T13:07:54.151Z</time>
      </trkpt>
      <trkpt lat="43.51303" lon="1.61252">
        <ele>200</ele>
        <time>2014-03-20T13:07:26.135Z</time>
      </trkpt>
      <trkpt lat="43.51344" lon="1.61216">
        <ele>197</ele>
        <time>2014-03-20T13:07:04.138Z</time>
      </trkpt>
      <trkpt lat="43.51371" lon="1.61199">
        <ele>196</ele>
        <time>2014-03-20T13:06:46.094Z</time>
      </trkpt>
      <trkpt lat="43.51434" lon="1.61153">
        <ele>194</ele>
        <time>2014-03-20T13:06:05.091Z</time>
      </trkpt>
      <trkpt lat="43.51483" lon="1.61144">
        <ele>192</ele>
        <time>2014-03-20T13:05:33.11Z</time>
      </trkpt>
      <trkpt lat="43.51492" lon="1.6114">
        <ele>192</ele>
        <time>2014-03-20T13:05:27.077Z</time>
      </trkpt>
      <trkpt lat="43.51529" lon="1.61133">
        <ele>188</ele>
        <time>2014-03-20T13:05:03.128Z</time>
      </trkpt>
      <trkpt lat="43.51576" lon="1.61117">
        <ele>186</ele>
        <time>2014-03-20T13:04:34.141Z</time>
      </trkpt>
      <trkpt lat="43.51609" lon="1.61113">
        <ele>182</ele>
        <time>2014-03-20T13:04:15.084Z</time>
      </trkpt>
      <trkpt lat="43.51679" lon="1.61098">
        <ele>178</ele>
        <time>2014-03-20T13:03:38.117Z</time>
      </trkpt>
      <trkpt lat="43.5175" lon="1.61106">
        <ele>176</ele>
        <time>2014-03-20T13:03:02.112Z</time>
      </trkpt>
      <trkpt lat="43.51762" lon="1.6111">
        <ele>174</ele>
        <time>2014-03-20T13:02:56.115Z</time>
      </trkpt>
      <trkpt lat="43.51803" lon="1.6111">
        <ele>173</ele>
        <time>2014-03-20T13:02:38.115Z</time>
      </trkpt>
      <trkpt lat="43.5181" lon="1.61116">
        <ele>173</ele>
      </trkpt>
      <trkpt lat="43.51813" lon="1.61107">
        <ele>173</ele>
        <time>2014-03-20T13:02:33.078Z</time>
      </trkpt>
      <trkpt lat="43.51833" lon="1.61082">
        <ele>173</ele>
        <time>2014-03-20T13:02:22.115Z</time>
      </trkpt>
      <trkpt lat="43.51854" lon="1.61049">
        <ele>171</ele>
        <time>2014-03-20T13:02:09.139Z</time>
      </trkpt>
      <trkpt lat="43.51877" lon="1.61019">
        <ele>171</ele>
        <time>2014-03-20T13:01:57.132Z</time>
      </trkpt>
      <trkpt lat="43.51912" lon="1.60969">
        <ele>171</ele>
        <time>2014-03-20T13:01:37.138Z</time>
      </trkpt>
      <trkpt lat="43.51945" lon="1.60911">
        <ele>170</ele>
        <time>2014-03-20T13:01:18.092Z</time>
      </trkpt>
      <trkpt lat="43.51976" lon="1.60863">
        <ele>170</ele>
        <time>2014-03-20T13:01:02.126Z</time>
      </trkpt>
      <trkpt lat="43.51987" lon="1.60822">
        <ele>170</ele>
        <time>2014-03-20T13:00:50.293Z</time>
      </trkpt>
      <trkpt lat="43.51996" lon="1.60802">
        <ele>170</ele>
      </trkpt>
      <trkpt lat="43.52016" lon="1.60789">
        <ele>170</ele>
      </trkpt>
      <trkpt lat="43.52043" lon="1.60765">
        <ele>170</ele>
        <time>2014-03-20T13:00:24.14Z</time>
      </trkpt>
      <trkpt lat="43.5207" lon="1.6074">
        <ele>172</ele>
      </trkpt>
      <trkpt lat="43.52106" lon="1.60695">
        <ele>171</ele>
        <time>2014-03-20T12:59:52.112Z</time>
      </trkpt>
      <trkpt lat="43.52129" lon="1.60665">
        <ele>172</ele>
      </trkpt>
      <trkpt lat="43.52148" lon="1.60627">
        <ele>172</ele>
        <time>2014-03-20T12:59:28.13Z</time>
      </trkpt>
      <trkpt lat="43.52162" lon="1.60602">
        <ele>172</ele>
        <time>2014-03-20T12:59:22.113Z</time>
      </trkpt>
      <trkpt lat="43.52184" lon="1.60554">
        <ele>171</ele>
        <time>2014-03-20T12:59:11.119Z</time>
      </trkpt>
      <trkpt lat="43.52196" lon="1.60532">
        <ele>171</ele>
        <time>2014-03-20T12:59:05.076Z</time>
      </trkpt>
      <trkpt lat="43.52202" lon="1.60516">
        <ele>171</ele>
        <time>2014-03-20T12:59:01.11Z</time>
      </trkpt>
      <trkpt lat="43.52235" lon="1.60456">
        <ele>173</ele>
        <time>2014-03-20T12:58:44.109Z</time>
      </trkpt>
      <trkpt lat="43.52313" lon="1.60376">
        <ele>171</ele>
        <time>2014-03-20T12:58:12.071Z</time>
      </trkpt>
      <trkpt lat="43.52341" lon="1.60342">
        <ele>169</ele>
        <time>2014-03-20T12:57:56.195Z</time>
      </trkpt>
      <trkpt lat="43.5236" lon="1.60325">
        <ele>170</ele>
        <time>2014-03-20T12:57:48.092Z</time>
      </trkpt>
      <trkpt lat="43.52418" lon="1.60256">
        <ele>168</ele>
        <time>2014-03-20T12:57:21.176Z</time>
      </trkpt>
      <trkpt lat="43.52496" lon="1.60153">
        <ele>169</ele>
      </trkpt>
      <trkpt lat="43.5252" lon="1.60125">
        <ele>168</ele>
      </trkpt>
      <trkpt lat="43.52629" lon="1.59973">
        <ele>168</ele>
        <time>2014-03-20T12:55:48.132Z</time>
      </trkpt>
      <trkpt lat="43.52676" lon="1.59904">
        <ele>167</ele>
        <time>2014-03-20T12:55:24.107Z</time>
      </trkpt>
      <trkpt lat="43.52731" lon="1.59831">
        <ele>168</ele>
        <time>2014-03-20T12:54:58.12Z</time>
      </trkpt>
      <trkpt lat="43.52754" lon="1.59805">
        <ele>165</ele>
        <time>2014-03-20T12:54:46.126Z</time>
      </trkpt>
      <trkpt lat="43.52796" lon="1.59748">
        <ele>166</ele>
        <time>2014-03-20T12:54:27.11Z</time>
      </trkpt>
      <trkpt lat="43.52825" lon="1.59705">
        <ele>166</ele>
        <time>2014-03-20T12:54:15.088Z</time>
      </trkpt>
      <trkpt lat="43.52833" lon="1.59688">
        <ele>167</ele>
        <time>2014-03-20T12:54:11.109Z</time>
      </trkpt>
      <trkpt lat="43.52853" lon="1.59635">
        <ele>166</ele>
        <time>2014-03-20T12:53:59.69Z</time>
      </trkpt>
      <trkpt lat="43.52874" lon="1.59566">
        <ele>168</ele>
      </trkpt>
      <trkpt lat="43.52883" lon="1.59537">
        <ele>168</ele>
        <time>2014-03-20T12:53:37.122Z</time>
      </trkpt>
      <trkpt lat="43.52939" lon="1.59362">
        <ele>168</ele>
        <time>2014-03-20T12:52:59.149Z</time>
      </trkpt>
      <trkpt lat="43.52959" lon="1.59316">
        <ele>170</ele>
      </trkpt>
      <trkpt lat="43.52969" lon="1.59301">
        <ele>171</ele>
      </trkpt>
      <trkpt lat="43.52979" lon="1.59288">
        <ele>171</ele>
      </trkpt>
      <trkpt lat="43.5299" lon="1.59286">
        <ele>171</ele>
        <time>2014-03-20T12:52:37.116Z</time>
      </trkpt>
      <trkpt lat="43.53" lon="1.59282">
        <ele>169</ele>
        <time>2014-03-20T12:52:34.786Z</time>
      </trkpt>
      <trkpt lat="43.53054" lon="1.59249">
        <ele>169</ele>
      </trkpt>
      <trkpt lat="43.5308" lon="1.5928">
        <ele>167</ele>
        <time>2014-03-20T12:52:14.142Z</time>
      </trkpt>
      <trkpt lat="43.5313" lon="1.59336">
        <ele>164</ele>
        <time>2014-03-20T12:51:50.305Z</time>
      </trkpt>
      <trkpt lat="43.53178" lon="1.59375">
        <ele>162</ele>
        <time>2014-03-20T12:51:32.129Z</time>
      </trkpt>
      <trkpt lat="43.53204" lon="1.59404">
        <ele>162</ele>
        <time>2014-03-20T12:51:23.132Z</time>
      </trkpt>
      <trkpt lat="43.53235" lon="1.59449">
        <ele>162</ele>
        <time>2014-03-20T12:51:10.099Z</time>
      </trkpt>
      <trkpt lat="43.53257" lon="1.5947">
        <ele>161</ele>
        <time>2014-03-20T12:51:02.201Z</time>
      </trkpt>
      <trkpt lat="43.5327" lon="1.59477">
        <ele>161</ele>
        <time>2014-03-20T12:50:57.537Z</time>
      </trkpt>
      <trkpt lat="43.53292" lon="1.59479">
        <ele>161</ele>
        <time>2014-03-20T12:50:49.978Z</time>
      </trkpt>
      <trkpt lat="43.53298" lon="1.59474">
        <ele>161</ele>
        <time>2014-03-20T12:50:46.118Z</time>
      </trkpt>
      <trkpt lat="43.53314" lon="1.59451">
        <ele>161</ele>
        <time>2014-03-20T12:50:38.109Z</time>
      </trkpt>
      <trkpt lat="43.53349" lon="1.59385">
        <ele>161</ele>
        <time>2014-03-20T12:50:19.126Z</time>
      </trkpt>
      <trkpt lat="43.53373" lon="1.59356">
        <ele>161</ele>
        <time>2014-03-20T12:50:08.113Z</time>
      </trkpt>
      <trkpt lat="43.53393" lon="1.5932">
        <ele>161</ele>
        <time>2014-03-20T12:49:58.12Z</time>
      </trkpt>
      <trkpt lat="43.53429" lon="1.5924">
        <ele>161</ele>
        <time>2014-03-20T12:49:35.205Z</time>
      </trkpt>
      <trkpt lat="43.5346" lon="1.59185">
        <ele>161</ele>
        <time>2014-03-20T12:49:19.75Z</time>
      </trkpt>
      <trkpt lat="43.53483" lon="1.59137">
        <ele>161</ele>
        <time>2014-03-20T12:49:05.123Z</time>
      </trkpt>
      <trkpt lat="43.53575" lon="1.59016">
        <ele>160</ele>
        <time>2014-03-20T12:48:25.128Z</time>
      </trkpt>
      <trkpt lat="43.53589" lon="1.59003">
        <ele>160</ele>
        <time>2014-03-20T12:48:20.075Z</time>
      </trkpt>
      <trkpt lat="43.53599" lon="1.58999">
        <ele>160</ele>
        <time>2014-03-20T12:48:17.117Z</time>
      </trkpt>
      <trkpt lat="43.53617" lon="1.58985">
        <ele>161</ele>
        <time>2014-03-20T12:48:09.125Z</time>
      </trkpt>
      <trkpt lat="43.53645" lon="1.58956">
        <ele>161</ele>
        <time>2014-03-20T12:47:57.122Z</time>
      </trkpt>
      <trkpt lat="43.53677" lon="1.58914">
        <ele>160</ele>
        <time>2014-03-20T12:47:41.07Z</time>
      </trkpt>
      <trkpt lat="43.53709" lon="1.58862">
        <ele>160</ele>
        <time>2014-03-20T12:47:23.11Z</time>
      </trkpt>
      <trkpt lat="43.53776" lon="1.58766">
        <ele>160</ele>
        <time>2014-03-20T12:46:48.105Z</time>
      </trkpt>
      <trkpt lat="43.53786" lon="1.58747">
        <ele>160</ele>
        <time>2014-03-20T12:46:43.094Z</time>
      </trkpt>
      <trkpt lat="43.5379" lon="1.58732">
        <ele>160</ele>
        <time>2014-03-20T12:46:39.104Z</time>
      </trkpt>
      <trkpt lat="43.53829" lon="1.58652">
        <ele>159</ele>
        <time>2014-03-20T12:46:13.137Z</time>
      </trkpt>
      <trkpt lat="43.53864" lon="1.58592">
        <ele>160</ele>
        <time>2014-03-20T12:45:55.072Z</time>
      </trkpt>
      <trkpt lat="43.53896" lon="1.58557">
        <ele>160</ele>
        <time>2014-03-20T12:45:40.099Z</time>
      </trkpt>
      <trkpt lat="43.53934" lon="1.58505">
        <ele>162</ele>
        <time>2014-03-20T12:45:21.112Z</time>
      </trkpt>
      <trkpt lat="43.53964" lon="1.58453">
        <ele>161</ele>
        <time>2014-03-20T12:45:05.11Z</time>
      </trkpt>
      <trkpt lat="43.53978" lon="1.58435">
        <ele>161</ele>
        <time>2014-03-20T12:44:59.111Z</time>
      </trkpt>
      <trkpt lat="43.53986" lon="1.58421">
        <ele>160</ele>
      </trkpt>
      <trkpt lat="43.54024" lon="1.58371">
        <ele>160</ele>
      </trkpt>
      <trkpt lat="43.54055" lon="1.58313">
        <ele>160</ele>
      </trkpt>
      <trkpt lat="43.54068" lon="1.58286">
        <ele>159</ele>
        <time>2014-03-20T12:44:13.118Z</time>
      </trkpt>
      <trkpt lat="43.54079" lon="1.58265">
        <ele>159</ele>
        <time>2014-03-20T12:44:07.071Z</time>
      </trkpt>
      <trkpt lat="43.54104" lon="1.58235">
        <ele>160</ele>
      </trkpt>
      <trkpt lat="43.54136" lon="1.58192">
        <ele>160</ele>
      </trkpt>
      <trkpt lat="43.54183" lon="1.58153">
        <ele>161</ele>
      </trkpt>
      <trkpt lat="43.54209" lon="1.58125">
        <ele>161</ele>
        <time>2014-03-20T12:43:23.079Z</time>
      </trkpt>
      <trkpt lat="43.54232" lon="1.58103">
        <ele>161</ele>
        <time>2014-03-20T12:43:15.065Z</time>
      </trkpt>
      <trkpt lat="43.54263" lon="1.58069">
        <ele>161</ele>
        <time>2014-03-20T12:43:05.066Z</time>
      </trkpt>
      <trkpt lat="43.54282" lon="1.58032">
        <ele>161</ele>
        <time>2014-03-20T12:42:58.068Z</time>
      </trkpt>
      <trkpt lat="43.54301" lon="1.58003">
        <ele>161</ele>
        <time>2014-03-20T12:42:50.07Z</time>
      </trkpt>
      <trkpt lat="43.54302" lon="1.57989">
        <ele>160</ele>
        <time>2014-03-20T12:42:47.117Z</time>
      </trkpt>
      <trkpt lat="43.54298" lon="1.57958">
        <ele>159</ele>
        <time>2014-03-20T12:42:40.253Z</time>
      </trkpt>
      <trkpt lat="43.54299" lon="1.57943">
        <ele>159</ele>
        <time>2014-03-20T12:42:36.098Z</time>
      </trkpt>
      <trkpt lat="43.54331" lon="1.57856">
        <ele>158</ele>
        <time>2014-03-20T12:42:17.1Z</time>
      </trkpt>
      <trkpt lat="43.54355" lon="1.57779">
        <ele>159</ele>
        <time>2014-03-20T12:41:56.213Z</time>
      </trkpt>
      <trkpt lat="43.54389" lon="1.57696">
        <ele>159</ele>
      </trkpt>
      <trkpt lat="43.54404" lon="1.57667">
        <ele>160</ele>
      </trkpt>
      <trkpt lat="43.54462" lon="1.5759">
        <ele>159</ele>
      </trkpt>
      <trkpt lat="43.54481" lon="1.57568">
        <ele>158</ele>
      </trkpt>
      <trkpt lat="43.54495" lon="1.57537">
        <ele>158</ele>
      </trkpt>
      <trkpt lat="43.5451" lon="1.57497">
        <ele>157</ele>
      </trkpt>
      <trkpt lat="43.54528" lon="1.57463">
        <ele>158</ele>
      </trkpt>
      <trkpt lat="43.54539" lon="1.57443">
        <ele>158</ele>
      </trkpt>
      <trkpt lat="43.54545" lon="1.57428">
        <ele>158</ele>
      </trkpt>
      <trkpt lat="43.54553" lon="1.57416">
        <ele>158</ele>
      </trkpt>
      <trkpt lat="43.54558" lon="1.5741">
        <ele>158</ele>
      </trkpt>
      <trkpt lat="43.54639" lon="1.57288">
        <ele>156</ele>
        <time>2014-03-20T12:39:19.826Z</time>
      </trkpt>
      <trkpt lat="43.5468" lon="1.57214">
        <ele>157</ele>
        <time>2014-03-20T12:38:59.066Z</time>
      </trkpt>
      <trkpt lat="43.54694" lon="1.57192">
        <ele>157</ele>
        <time>2014-03-20T12:38:53.095Z</time>
      </trkpt>
      <trkpt lat="43.54719" lon="1.57141">
        <ele>157</ele>
        <time>2014-03-20T12:38:41.103Z</time>
      </trkpt>
      <trkpt lat="43.54728" lon="1.57129">
        <ele>157</ele>
        <time>2014-03-20T12:38:38.116Z</time>
      </trkpt>
      <trkpt lat="43.5475" lon="1.57078">
        <ele>157</ele>
      </trkpt>
      <trkpt lat="43.54771" lon="1.57025">
        <ele>157</ele>
        <time>2014-03-20T12:38:12.244Z</time>
      </trkpt>
      <trkpt lat="43.54786" lon="1.56991">
        <ele>157</ele>
        <time>2014-03-20T12:38:05.168Z</time>
      </trkpt>
      <trkpt lat="43.54793" lon="1.56949">
        <ele>158</ele>
        <time>2014-03-20T12:37:57.099Z</time>
      </trkpt>
      <trkpt lat="43.54806" lon="1.5687">
        <ele>158</ele>
      </trkpt>
      <trkpt lat="43.54821" lon="1.56811">
        <ele>158</ele>
      </trkpt>
      <trkpt lat="43.54833" lon="1.56773">
        <ele>159</ele>
      </trkpt>
      <trkpt lat="43.54843" lon="1.5675">
        <ele>159</ele>
      </trkpt>
      <trkpt lat="43.54862" lon="1.56701">
        <ele>158</ele>
        <time>2014-03-20T12:37:02.053Z</time>
      </trkpt>
      <trkpt lat="43.54865" lon="1.56687">
        <ele>158</ele>
      </trkpt>
      <trkpt lat="43.54871" lon="1.56684">
        <ele>158</ele>
      </trkpt>
      <trkpt lat="43.54887" lon="1.56683">
        <ele>158</ele>
      </trkpt>
      <trkpt lat="43.54905" lon="1.56678">
        <ele>157</ele>
      </trkpt>
      <trkpt lat="43.54926" lon="1.56664">
        <ele>156</ele>
      </trkpt>
      <trkpt lat="43.54957" lon="1.56631">
        <ele>156</ele>
      </trkpt>
      <trkpt lat="43.54979" lon="1.56621">
        <ele>157</ele>
      </trkpt>
      <trkpt lat="43.54992" lon="1.56626">
        <ele>157</ele>
      </trkpt>
      <trkpt lat="43.5502" lon="1.56634">
        <ele>158</ele>
      </trkpt>
      <trkpt lat="43.55039" lon="1.56637">
        <ele>158</ele>
      </trkpt>
      <trkpt lat="43.55079" lon="1.56645">
        <ele>159</ele>
      </trkpt>
      <trkpt lat="43.55088" lon="1.56642">
        <ele>162</ele>
        <time>2014-03-20T12:36:02.12Z</time>
      </trkpt>
      <trkpt lat="43.55095" lon="1.56633">
        <ele>163</ele>
        <time>2014-03-20T12:35:59.224Z</time>
      </trkpt>
      <trkpt lat="43.55119" lon="1.56585">
        <ele>163</ele>
        <time>2014-03-20T12:35:48.128Z</time>
      </trkpt>
      <trkpt lat="43.55143" lon="1.5655">
        <ele>162</ele>
        <time>2014-03-20T12:35:38.076Z</time>
      </trkpt>
      <trkpt lat="43.55163" lon="1.56504">
        <ele>163</ele>
        <time>2014-03-20T12:35:26.113Z</time>
      </trkpt>
      <trkpt lat="43.55192" lon="1.56426">
        <ele>163</ele>
        <time>2014-03-20T12:35:05.11Z</time>
      </trkpt>
      <trkpt lat="43.55198" lon="1.56396">
        <ele>160</ele>
        <time>2014-03-20T12:34:58.162Z</time>
      </trkpt>
      <trkpt lat="43.55228" lon="1.56287">
        <ele>159</ele>
        <time>2014-03-20T12:34:34.111Z</time>
      </trkpt>
      <trkpt lat="43.55247" lon="1.56237">
        <ele>159</ele>
        <time>2014-03-20T12:34:23.172Z</time>
      </trkpt>
      <trkpt lat="43.55272" lon="1.56181">
        <ele>161</ele>
        <time>2014-03-20T12:34:08.12Z</time>
      </trkpt>
      <trkpt lat="43.55292" lon="1.56128">
        <ele>161</ele>
        <time>2014-03-20T12:33:57.069Z</time>
      </trkpt>
      <trkpt lat="43.5533" lon="1.56035">
        <ele>159</ele>
      </trkpt>
      <trkpt lat="43.55339" lon="1.56003">
        <ele>161</ele>
      </trkpt>
      <trkpt lat="43.55342" lon="1.55995">
        <ele>161</ele>
      </trkpt>
      <trkpt lat="43.5538" lon="1.55897">
        <ele>160</ele>
      </trkpt>
      <trkpt lat="43.55382" lon="1.55883">
        <ele>160</ele>
        <time>2014-03-20T12:33:06.719Z</time>
      </trkpt>
      <trkpt lat="43.55414" lon="1.55787">
        <ele>156</ele>
        <time>2014-03-20T12:32:46.111Z</time>
      </trkpt>
      <trkpt lat="43.55434" lon="1.55732">
        <ele>159</ele>
        <time>2014-03-20T12:32:33.09Z</time>
      </trkpt>
      <trkpt lat="43.55449" lon="1.55662">
        <ele>158</ele>
        <time>2014-03-20T12:32:17.302Z</time>
      </trkpt>
      <trkpt lat="43.55456" lon="1.55606">
        <ele>158</ele>
        <time>2014-03-20T12:32:06.1Z</time>
      </trkpt>
      <trkpt lat="43.55462" lon="1.55575">
        <ele>157</ele>
        <time>2014-03-20T12:31:59.845Z</time>
      </trkpt>
      <trkpt lat="43.55484" lon="1.55514">
        <ele>156</ele>
        <time>2014-03-20T12:31:47.061Z</time>
      </trkpt>
      <trkpt lat="43.55496" lon="1.55473">
        <ele>155</ele>
        <time>2014-03-20T12:31:39.093Z</time>
      </trkpt>
      <trkpt lat="43.55498" lon="1.55458">
        <ele>154</ele>
        <time>2014-03-20T12:31:36.097Z</time>
      </trkpt>
      <trkpt lat="43.5549" lon="1.5544">
        <ele>154</ele>
        <time>2014-03-20T12:31:32.055Z</time>
      </trkpt>
      <trkpt lat="43.55451" lon="1.55396">
        <ele>153</ele>
        <time>2014-03-20T12:31:20.091Z</time>
      </trkpt>
      <trkpt lat="43.55449" lon="1.55387">
        <ele>153</ele>
        <time>2014-03-20T12:31:18.049Z</time>
      </trkpt>
      <trkpt lat="43.55475" lon="1.5534">
        <ele>154</ele>
        <time>2014-03-20T12:31:03.097Z</time>
      </trkpt>
      <trkpt lat="43.55484" lon="1.55313">
        <ele>153</ele>
        <time>2014-03-20T12:30:56.178Z</time>
      </trkpt>
      <trkpt lat="43.55509" lon="1.55262">
        <ele>154</ele>
        <time>2014-03-20T12:30:43.115Z</time>
      </trkpt>
      <trkpt lat="43.5553" lon="1.55213">
        <ele>154</ele>
        <time>2014-03-20T12:30:32.111Z</time>
      </trkpt>
      <trkpt lat="43.55541" lon="1.55182">
        <ele>154</ele>
        <time>2014-03-20T12:30:25.074Z</time>
      </trkpt>
      <trkpt lat="43.55543" lon="1.55168">
        <ele>154</ele>
        <time>2014-03-20T12:30:22.123Z</time>
      </trkpt>
      <trkpt lat="43.55545" lon="1.55131">
        <ele>153</ele>
        <time>2014-03-20T12:30:14.108Z</time>
      </trkpt>
      <trkpt lat="43.55548" lon="1.55116">
        <ele>153</ele>
        <time>2014-03-20T12:30:11.074Z</time>
      </trkpt>
      <trkpt lat="43.55549" lon="1.55096">
        <ele>153</ele>
        <time>2014-03-20T12:30:07.07Z</time>
      </trkpt>
      <trkpt lat="43.55545" lon="1.55048">
        <ele>152</ele>
        <time>2014-03-20T12:29:58.089Z</time>
      </trkpt>
      <trkpt lat="43.55545" lon="1.55023">
        <ele>152</ele>
        <time>2014-03-20T12:29:53.126Z</time>
      </trkpt>
      <trkpt lat="43.55547" lon="1.55007">
        <ele>152</ele>
        <time>2014-03-20T12:29:50.081Z</time>
      </trkpt>
      <trkpt lat="43.55557" lon="1.54977">
        <ele>152</ele>
        <time>2014-03-20T12:29:45.076Z</time>
      </trkpt>
      <trkpt lat="43.55567" lon="1.54962">
        <ele>152</ele>
        <time>2014-03-20T12:29:40.057Z</time>
      </trkpt>
      <trkpt lat="43.55615" lon="1.54924">
        <ele>151</ele>
        <time>2014-03-20T12:29:25.173Z</time>
      </trkpt>
      <trkpt lat="43.55631" lon="1.54902">
        <ele>151</ele>
        <time>2014-03-20T12:29:19.067Z</time>
      </trkpt>
      <trkpt lat="43.55646" lon="1.54877">
        <ele>151</ele>
        <time>2014-03-20T12:29:13.111Z</time>
      </trkpt>
      <trkpt lat="43.55672" lon="1.54826">
        <ele>151</ele>
        <time>2014-03-20T12:29:07.071Z</time>
      </trkpt>
      <trkpt lat="43.55648" lon="1.54819">
        <ele>152</ele>
        <time>2014-03-20T12:28:46.133Z</time>
      </trkpt>
      <trkpt lat="43.55623" lon="1.54812">
        <ele>152</ele>
      </trkpt>
      <trkpt lat="43.55602" lon="1.54801">
        <ele>152</ele>
      </trkpt>
      <trkpt lat="43.55565" lon="1.54779">
        <ele>153</ele>
      </trkpt>
      <trkpt lat="43.55554" lon="1.54777">
        <ele>153</ele>
      </trkpt>
      <trkpt lat="43.55594" lon="1.54661">
        <ele>153</ele>
        <time>2014-03-20T12:27:54.486Z</time>
      </trkpt>
      <trkpt lat="43.55623" lon="1.54576">
        <ele>152</ele>
        <time>2014-03-20T12:27:34.198Z</time>
      </trkpt>
      <trkpt lat="43.55647" lon="1.54517">
        <ele>153</ele>
        <time>2014-03-20T12:27:21.903Z</time>
      </trkpt>
      <trkpt lat="43.55733" lon="1.54349">
        <ele>154</ele>
        <time>2014-03-20T12:26:37.078Z</time>
      </trkpt>
      <trkpt lat="43.5574" lon="1.54341">
        <ele>153</ele>
        <time>2014-03-20T12:26:35.097Z</time>
      </trkpt>
      <trkpt lat="43.55764" lon="1.54279">
        <ele>153</ele>
        <time>2014-03-20T12:26:22.08Z</time>
      </trkpt>
      <trkpt lat="43.55799" lon="1.54201">
        <ele>153</ele>
        <time>2014-03-20T12:26:04.084Z</time>
      </trkpt>
      <trkpt lat="43.55805" lon="1.54194">
        <ele>152</ele>
        <time>2014-03-20T12:26:02.085Z</time>
      </trkpt>
      <trkpt lat="43.55832" lon="1.54178">
        <ele>152</ele>
        <time>2014-03-20T12:25:55.14Z</time>
      </trkpt>
      <trkpt lat="43.55845" lon="1.54161">
        <ele>150</ele>
        <time>2014-03-20T12:25:51.234Z</time>
      </trkpt>
      <trkpt lat="43.55909" lon="1.54013">
        <ele>149</ele>
        <time>2014-03-20T12:25:20.178Z</time>
      </trkpt>
      <trkpt lat="43.55958" lon="1.5389">
        <ele>150</ele>
        <time>2014-03-20T12:24:54.106Z</time>
      </trkpt>
      <trkpt lat="43.55963" lon="1.5387">
        <ele>150</ele>
        <time>2014-03-20T12:24:50.093Z</time>
      </trkpt>
      <trkpt lat="43.55979" lon="1.53836">
        <ele>150</ele>
        <time>2014-03-20T12:24:44.092Z</time>
      </trkpt>
      <trkpt lat="43.56002" lon="1.53776">
        <ele>151</ele>
        <time>2014-03-20T12:24:29.115Z</time>
      </trkpt>
      <trkpt lat="43.56008" lon="1.53751">
        <ele>152</ele>
        <time>2014-03-20T12:24:23.114Z</time>
      </trkpt>
      <trkpt lat="43.5603" lon="1.53711">
        <ele>151</ele>
        <time>2014-03-20T12:24:12.108Z</time>
      </trkpt>
      <trkpt lat="43.56062" lon="1.53641">
        <ele>150</ele>
        <time>2014-03-20T12:23:57.11Z</time>
      </trkpt>
      <trkpt lat="43.56073" lon="1.53606">
        <ele>150</ele>
        <time>2014-03-20T12:23:49.11Z</time>
      </trkpt>
      <trkpt lat="43.56093" lon="1.53563">
        <ele>149</ele>
        <time>2014-03-20T12:23:39.106Z</time>
      </trkpt>
      <trkpt lat="43.56103" lon="1.53518">
        <ele>149</ele>
        <time>2014-03-20T12:23:31.099Z</time>
      </trkpt>
      <trkpt lat="43.56121" lon="1.53479">
        <ele>149</ele>
        <time>2014-03-20T12:23:24.048Z</time>
      </trkpt>
      <trkpt lat="43.56126" lon="1.53462">
        <ele>149</ele>
        <time>2014-03-20T12:23:21.089Z</time>
      </trkpt>
      <trkpt lat="43.56128" lon="1.53438">
        <ele>150</ele>
        <time>2014-03-20T12:23:17.094Z</time>
      </trkpt>
      <trkpt lat="43.56171" lon="1.53353">
        <ele>148</ele>
        <time>2014-03-20T12:22:58.099Z</time>
      </trkpt>
      <trkpt lat="43.56189" lon="1.53323">
        <ele>148</ele>
        <time>2014-03-20T12:22:51.058Z</time>
      </trkpt>
      <trkpt lat="43.56208" lon="1.53277">
        <ele>148</ele>
        <time>2014-03-20T12:22:40.179Z</time>
      </trkpt>
      <trkpt lat="43.56235" lon="1.53238">
        <ele>149</ele>
        <time>2014-03-20T12:22:30.024Z</time>
      </trkpt>
      <trkpt lat="43.56267" lon="1.53205">
        <ele>149</ele>
        <time>2014-03-20T12:22:18.097Z</time>
      </trkpt>
      <trkpt lat="43.56288" lon="1.53172">
        <ele>149</ele>
        <time>2014-03-20T12:22:11.097Z</time>
      </trkpt>
      <trkpt lat="43.56338" lon="1.53056">
        <ele>148</ele>
        <time>2014-03-20T12:21:49.092Z</time>
      </trkpt>
      <trkpt lat="43.56424" lon="1.52991">
        <ele>148</ele>
      </trkpt>
      <trkpt lat="43.56476" lon="1.52963">
        <ele>149</ele>
      </trkpt>
      <trkpt lat="43.56621" lon="1.5267">
        <ele>149</ele>
      </trkpt>
      <trkpt lat="43.56657" lon="1.52612">
        <ele>149</ele>
      </trkpt>
      <trkpt lat="43.56664" lon="1.52509">
        <ele>148</ele>
      </trkpt>
      <trkpt lat="43.56699" lon="1.52312">
        <ele>146</ele>
      </trkpt>
      <trkpt lat="43.56728" lon="1.5222">
        <ele>146</ele>
      </trkpt>
      <trkpt lat="43.56735" lon="1.5211">
        <ele>146</ele>
      </trkpt>
      <trkpt lat="43.56735" lon="1.52047">
        <ele>147</ele>
      </trkpt>
      <trkpt lat="43.56738" lon="1.52031">
        <ele>147</ele>
      </trkpt>
      <trkpt lat="43.56768" lon="1.5204">
        <ele>146</ele>
      </trkpt>
      <trkpt lat="43.56783" lon="1.51941">
        <ele>146</ele>
      </trkpt>
      <trkpt lat="43.56821" lon="1.51711">
        <ele>146</ele>
      </trkpt>
      <trkpt lat="43.56836" lon="1.51651">
        <ele>146</ele>
      </trkpt>
      <trkpt lat="43.56817" lon="1.51574">
        <ele>147</ele>
      </trkpt>
      <trkpt lat="43.56823" lon="1.51432">
        <ele>147</ele>
      </trkpt>
      <trkpt lat="43.56792" lon="1.51298">
        <ele>146</ele>
      </trkpt>
      <trkpt lat="43.56737" lon="1.51076">
        <ele>145</ele>
      </trkpt>
    </trkseg>
  </trk>
</gpx>